createdAt,value
2019-01-31T00:00:36.510Z,19.13
2019-01-31T00:03:17.367Z,23.33
2019-01-31T00:05:58.490Z,19.57
2019-01-31T00:08:45.448Z,22.17
2019-01-31T00:11:22.046Z,22.47
2019-01-31T00:14:03.105Z,22.83
2019-01-31T00:16:43.802Z,23.40
2019-01-31T00:19:24.855Z,23.17
2019-01-31T00:22:05.778Z,21.87
2019-01-31T00:24:46.549Z,25.10
2019-01-31T00:27:27.474Z,24.53
2019-01-31T00:30:08.594Z,22.10
2019-01-31T00:32:49.455Z,22.90
2019-01-31T00:35:30.350Z,27.13
2019-01-31T00:38:11.314Z,22.77
2019-01-31T00:40:52.042Z,24.40
2019-01-31T00:43:33.167Z,23.03
2019-01-31T00:46:13.815Z,25.07
2019-01-31T00:48:54.930Z,24.40
2019-01-31T00:51:35.762Z,26.90
2019-01-31T00:54:16.324Z,26.40
2019-01-31T00:56:56.879Z,28.60
2019-01-31T00:59:37.708Z,25.97
2019-01-31T01:02:18.419Z,26.20
2019-01-31T01:04:59.141Z,29.10
2019-01-31T01:07:39.807Z,29.47
2019-01-31T01:10:20.371Z,25.63
2019-01-31T01:13:01.187Z,28.23
2019-01-31T01:15:41.777Z,27.13
2019-01-31T01:18:22.395Z,25.37
2019-01-31T01:21:03.074Z,23.03
2019-01-31T01:23:43.715Z,23.57
2019-01-31T01:26:24.530Z,23.60
2019-01-31T01:29:05.098Z,28.43
2019-01-31T01:31:45.663Z,25.17
2019-01-31T01:34:26.653Z,24.57
2019-01-31T01:37:07.698Z,26.67
2019-01-31T01:43:07.961Z,23.97
2019-01-31T01:45:49.130Z,26.77
2019-01-31T01:48:29.844Z,24.23
2019-01-31T01:51:10.541Z,24.70
2019-01-31T01:53:51.398Z,24.03
2019-01-31T01:56:32.234Z,24.70
2019-01-31T01:59:12.849Z,23.60
2019-01-31T02:01:53.509Z,22.27
2019-01-31T02:04:34.250Z,22.80
2019-01-31T02:10:22.874Z,21.47
2019-01-31T02:16:11.247Z,20.73
2019-01-31T02:18:51.779Z,22.63
2019-01-31T02:21:32.442Z,22.83
2019-01-31T02:24:13.419Z,22.10
2019-01-31T02:26:53.878Z,21.53
2019-01-31T02:29:34.610Z,21.07
2019-01-31T02:32:15.274Z,21.73
2019-01-31T02:38:04.272Z,21.57
2019-01-31T02:40:45.190Z,19.63
2019-01-31T02:43:25.702Z,18.80
2019-01-31T02:46:06.289Z,19.03
2019-01-31T02:48:46.938Z,17.27
2019-01-31T02:51:27.774Z,19.93
2019-01-31T02:54:08.498Z,16.90
2019-01-31T02:56:49.291Z,17.63
2019-01-31T03:02:38.146Z,16.13
2019-01-31T03:05:19.115Z,16.80
2019-01-31T03:07:59.995Z,16.23
2019-01-31T03:10:40.897Z,16.70
2019-01-31T03:13:21.743Z,17.87
2019-01-31T03:16:02.244Z,19.33
2019-01-31T03:18:42.915Z,18.07
2019-01-31T03:21:23.415Z,15.23
2019-01-31T03:24:03.916Z,16.77
2019-01-31T03:26:44.402Z,16.93
2019-01-31T03:29:25.011Z,15.57
2019-01-31T03:32:05.620Z,16.10
2019-01-31T03:34:46.406Z,17.37
2019-01-31T03:37:27.011Z,18.37
2019-01-31T03:40:07.912Z,16.53
2019-01-31T03:42:48.250Z,15.63
2019-01-31T03:45:29.019Z,15.83
2019-01-31T03:48:09.487Z,16.30
2019-01-31T03:50:49.979Z,14.90
2019-01-31T03:53:30.692Z,14.90
2019-01-31T03:56:11.632Z,15.87
2019-01-31T03:58:52.463Z,17.50
2019-01-31T04:01:33.347Z,16.40
2019-01-31T04:04:14.102Z,15.07
2019-01-31T04:06:54.939Z,16.70
2019-01-31T04:09:35.841Z,14.30
2019-01-31T04:12:16.769Z,14.00
2019-01-31T04:14:57.515Z,15.80
2019-01-31T04:20:57.465Z,14.67
2019-01-31T04:23:38.083Z,13.60
2019-01-31T04:26:18.921Z,15.23
2019-01-31T04:28:59.518Z,13.83
2019-01-31T04:31:39.911Z,14.90
2019-01-31T04:34:20.634Z,13.80
2019-01-31T04:37:01.515Z,14.60
2019-01-31T04:39:42.117Z,13.80
2019-01-31T04:42:22.811Z,14.90
2019-01-31T04:45:03.494Z,15.97
2019-01-31T04:47:44.534Z,15.00
2019-01-31T04:50:25.330Z,16.43
2019-01-31T04:53:06.215Z,15.13
2019-01-31T04:55:46.926Z,17.30
2019-01-31T04:58:27.795Z,13.90
2019-01-31T05:01:08.784Z,14.83
2019-01-31T05:03:49.718Z,13.37
2019-01-31T05:06:30.582Z,12.57
2019-01-31T05:09:11.239Z,13.70
2019-01-31T05:11:52.010Z,14.00
2019-01-31T05:14:32.760Z,15.43
2019-01-31T05:17:13.871Z,11.77
2019-01-31T05:19:54.151Z,12.50
2019-01-31T05:22:34.729Z,13.73
2019-01-31T05:25:15.576Z,14.00
2019-01-31T05:27:56.474Z,10.23
2019-01-31T05:30:37.633Z,12.73
2019-01-31T05:33:18.458Z,13.73
2019-01-31T05:35:59.089Z,12.90
2019-01-31T05:38:39.822Z,12.27
2019-01-31T05:41:20.331Z,15.33
2019-01-31T05:44:00.948Z,11.97
2019-01-31T05:46:41.702Z,12.87
2019-01-31T05:49:22.452Z,14.37
2019-01-31T05:52:03.200Z,14.33
2019-01-31T05:54:43.845Z,15.23
2019-01-31T05:57:24.682Z,13.37
2019-01-31T06:00:05.521Z,17.00
2019-01-31T06:02:46.132Z,13.27
2019-01-31T06:05:26.557Z,12.77
2019-01-31T06:08:07.454Z,12.77
2019-01-31T06:10:48.392Z,14.47
2019-01-31T06:13:29.286Z,13.03
2019-01-31T06:16:10.096Z,12.53
2019-01-31T06:21:59.616Z,12.90
2019-01-31T06:24:40.282Z,14.30
2019-01-31T06:27:21.007Z,15.63
2019-01-31T06:30:21.400Z,13.00
2019-01-31T06:33:01.738Z,12.87
2019-01-31T06:35:42.410Z,14.43
2019-01-31T06:38:23.022Z,16.53
2019-01-31T06:41:03.540Z,14.57
2019-01-31T06:43:44.306Z,13.60
2019-01-31T06:46:25.078Z,14.33
2019-01-31T06:49:05.777Z,14.73
2019-01-31T06:51:46.247Z,15.30
2019-01-31T06:54:26.907Z,13.70
2019-01-31T06:57:07.418Z,16.10
2019-01-31T06:59:48.015Z,15.83
2019-01-31T07:02:28.570Z,13.43
2019-01-31T07:05:09.852Z,13.50
2019-01-31T07:07:50.419Z,15.97
2019-01-31T07:10:31.062Z,13.00
2019-01-31T07:13:11.706Z,13.47
2019-01-31T07:15:52.411Z,12.53
2019-01-31T07:18:33.006Z,15.70
2019-01-31T07:21:14.640Z,14.83
2019-01-31T07:27:00.727Z,11.53
2019-01-31T07:29:41.529Z,15.30
2019-01-31T07:32:22.410Z,15.43
2019-01-31T07:35:03.228Z,12.73
2019-01-31T07:37:43.975Z,12.73
2019-01-31T07:40:24.898Z,15.23
2019-01-31T07:43:05.519Z,12.17
2019-01-31T07:45:46.119Z,14.87
2019-01-31T07:48:27.355Z,12.40
2019-01-31T07:51:08.274Z,12.00
2019-01-31T07:53:49.099Z,12.63
2019-01-31T07:56:30.050Z,14.60
2019-01-31T07:59:10.879Z,13.53
2019-01-31T08:01:51.755Z,12.37
2019-01-31T08:04:32.375Z,12.90
2019-01-31T08:07:12.871Z,11.77
2019-01-31T08:09:56.048Z,10.90
2019-01-31T08:12:36.386Z,12.97
2019-01-31T08:15:17.183Z,14.50
2019-01-31T08:17:57.971Z,11.00
2019-01-31T08:23:43.844Z,11.73
2019-01-31T08:26:24.742Z,10.10
2019-01-31T08:29:05.645Z,10.40
2019-01-31T08:31:46.094Z,13.23
2019-01-31T08:34:26.708Z,9.53
2019-01-31T08:37:07.424Z,11.13
2019-01-31T08:39:48.288Z,10.03
2019-01-31T08:42:29.082Z,10.77
2019-01-31T08:45:10.323Z,13.23
2019-01-31T08:47:51.558Z,11.50
2019-01-31T08:50:32.074Z,10.33
2019-01-31T08:53:12.797Z,10.17
2019-01-31T08:55:53.242Z,11.33
2019-01-31T08:58:33.850Z,12.40
2019-01-31T09:01:14.488Z,11.80
2019-01-31T09:03:55.125Z,10.70
2019-01-31T09:06:35.896Z,10.83
2019-01-31T09:09:16.587Z,11.03
2019-01-31T09:11:57.693Z,11.27
2019-01-31T09:14:38.336Z,10.60
2019-01-31T09:17:19.327Z,11.93
2019-01-31T09:19:59.725Z,13.33
2019-01-31T09:22:40.621Z,10.47
2019-01-31T09:25:21.187Z,11.60
2019-01-31T09:28:01.503Z,9.90
2019-01-31T09:30:41.914Z,8.60
2019-01-31T09:33:22.522Z,9.63
2019-01-31T09:36:03.190Z,7.23
2019-01-31T09:38:44.030Z,9.07
2019-01-31T09:41:24.559Z,8.70
2019-01-31T09:44:05.023Z,7.53
2019-01-31T09:46:45.759Z,9.03
2019-01-31T09:49:26.169Z,9.00
2019-01-31T09:52:07.135Z,11.47
2019-01-31T09:54:47.791Z,8.47
2019-01-31T09:57:28.717Z,8.37
2019-01-31T10:00:09.205Z,9.37
2019-01-31T10:02:49.839Z,9.43
2019-01-31T10:05:30.531Z,10.40
2019-01-31T10:08:11.154Z,9.27
2019-01-31T10:10:52.081Z,7.53
2019-01-31T10:13:32.575Z,8.30
2019-01-31T10:16:12.923Z,7.63
2019-01-31T10:18:53.949Z,8.80
2019-01-31T10:21:34.659Z,9.47
2019-01-31T10:24:15.086Z,8.47
2019-01-31T10:26:55.528Z,8.67
2019-01-31T10:29:36.362Z,9.27
2019-01-31T10:32:16.931Z,7.23
2019-01-31T10:34:57.468Z,6.80
2019-01-31T10:37:38.287Z,7.30
2019-01-31T10:40:18.965Z,7.63
2019-01-31T10:42:59.756Z,7.27
2019-01-31T10:45:40.625Z,6.00
2019-01-31T10:51:29.610Z,6.43
2019-01-31T10:54:10.762Z,7.50
2019-01-31T10:56:51.788Z,6.83
2019-01-31T10:59:32.254Z,6.27
2019-01-31T11:02:13.102Z,6.00
2019-01-31T11:04:53.882Z,6.50
2019-01-31T11:10:42.810Z,6.40
2019-01-31T11:13:23.332Z,5.50
2019-01-31T11:16:03.989Z,6.73
2019-01-31T11:18:44.335Z,5.60
2019-01-31T11:21:25.242Z,4.70
2019-01-31T11:24:06.114Z,6.70
2019-01-31T11:26:46.963Z,6.73
2019-01-31T11:29:28.143Z,5.20
2019-01-31T11:32:08.771Z,7.47
2019-01-31T11:34:49.659Z,5.20
2019-01-31T11:37:30.487Z,6.07
2019-01-31T11:40:11.215Z,4.23
2019-01-31T11:42:52.045Z,5.23
2019-01-31T11:45:32.881Z,4.67
2019-01-31T11:48:13.597Z,7.10
2019-01-31T11:50:54.051Z,5.33
2019-01-31T11:53:34.417Z,4.73
2019-01-31T11:56:14.962Z,5.47
2019-01-31T11:58:55.528Z,7.23
2019-01-31T12:01:35.895Z,4.40
2019-01-31T12:04:16.847Z,7.97
2019-01-31T12:06:57.286Z,5.17
2019-01-31T12:09:38.211Z,8.13
2019-01-31T12:12:18.691Z,4.47
2019-01-31T12:14:59.219Z,5.80
2019-01-31T12:17:39.666Z,4.70
2019-01-31T12:20:20.409Z,5.27
2019-01-31T12:23:00.747Z,5.47
2019-01-31T12:25:41.907Z,4.73
2019-01-31T12:28:22.884Z,5.30
2019-01-31T12:31:03.673Z,4.47
2019-01-31T12:33:44.398Z,4.90
2019-01-31T12:36:25.347Z,4.40
2019-01-31T12:39:06.258Z,5.97
2019-01-31T12:41:46.899Z,4.03
2019-01-31T12:44:27.771Z,5.33
2019-01-31T12:47:08.254Z,5.47
2019-01-31T12:49:48.674Z,4.60
2019-01-31T12:52:29.446Z,4.40
2019-01-31T12:55:10.035Z,5.33
2019-01-31T12:57:50.534Z,6.70
2019-01-31T13:00:31.560Z,5.27
2019-01-31T13:03:00.106Z,4.93
2019-01-31T13:05:48.090Z,4.67
2019-01-31T13:11:18.030Z,5.17
2019-01-31T13:13:58.857Z,3.87
2019-01-31T13:16:39.419Z,3.57
2019-01-31T13:19:19.932Z,5.10
2019-01-31T13:22:00.586Z,4.77
2019-01-31T13:24:41.443Z,4.87
2019-01-31T13:27:22.259Z,4.27
2019-01-31T13:30:02.584Z,3.53
2019-01-31T13:32:43.104Z,3.23
2019-01-31T13:35:23.634Z,3.30
2019-01-31T13:38:04.615Z,3.30
2019-01-31T13:40:45.487Z,4.30
2019-01-31T13:43:26.104Z,3.37
2019-01-31T13:46:07.381Z,4.13
2019-01-31T13:48:47.950Z,5.40
2019-01-31T13:51:28.451Z,3.37
2019-01-31T13:54:08.858Z,3.37
2019-01-31T13:56:49.925Z,3.80
2019-01-31T13:59:30.520Z,2.90
2019-01-31T14:02:11.501Z,4.57
2019-01-31T14:04:52.459Z,2.77
2019-01-31T14:07:33.155Z,3.60
2019-01-31T14:10:13.575Z,5.93
2019-01-31T14:12:54.333Z,3.23
2019-01-31T14:15:34.730Z,3.93
2019-01-31T14:18:15.443Z,6.63
2019-01-31T14:20:55.963Z,3.50
2019-01-31T14:23:36.318Z,5.23
2019-01-31T14:26:16.691Z,3.53
2019-01-31T14:28:57.403Z,3.77
2019-01-31T14:31:38.015Z,3.80
2019-01-31T14:34:18.762Z,5.57
2019-01-31T14:36:59.487Z,5.10
2019-01-31T14:42:59.323Z,5.47
2019-01-31T14:45:40.054Z,5.10
2019-01-31T14:48:20.857Z,3.67
2019-01-31T14:51:01.571Z,5.90
2019-01-31T14:53:41.992Z,4.50
2019-01-31T14:56:22.711Z,4.97
2019-01-31T15:02:08.719Z,5.70
2019-01-31T15:04:49.446Z,4.13
2019-01-31T15:07:30.336Z,5.30
2019-01-31T15:10:10.937Z,6.70
2019-01-31T15:12:51.794Z,4.53
2019-01-31T15:15:32.578Z,8.87
2019-01-31T15:18:13.339Z,5.27
2019-01-31T15:20:53.967Z,5.07
2019-01-31T15:23:34.721Z,4.80
2019-01-31T15:26:15.352Z,7.20
2019-01-31T15:28:55.934Z,5.43
2019-01-31T15:31:36.786Z,6.00
2019-01-31T15:34:17.378Z,5.60
2019-01-31T15:36:57.975Z,5.33
2019-01-31T15:39:38.850Z,4.97
2019-01-31T15:42:19.582Z,6.33
2019-01-31T15:45:00.353Z,4.27
2019-01-31T15:50:46.068Z,5.90
2019-01-31T15:53:27.281Z,4.47
2019-01-31T15:56:07.622Z,3.80
2019-01-31T15:58:49.012Z,2.87
2019-01-31T16:01:29.738Z,4.30
2019-01-31T16:04:10.243Z,4.67
2019-01-31T16:06:51.295Z,5.00
2019-01-31T16:09:32.122Z,2.77
2019-01-31T16:12:13.261Z,2.93
2019-01-31T16:14:55.168Z,4.07
2019-01-31T16:17:36.462Z,2.77
2019-01-31T16:20:17.079Z,4.47
2019-01-31T16:23:17.144Z,2.43
2019-01-31T16:25:57.491Z,3.03
2019-01-31T16:28:38.009Z,2.90
2019-01-31T16:31:18.836Z,4.53
2019-01-31T16:33:59.468Z,3.70
2019-01-31T16:36:40.002Z,3.63
2019-01-31T16:39:20.752Z,3.90
2019-01-31T16:41:49.286Z,3.37
2019-01-31T16:44:37.189Z,2.87
2019-01-31T16:47:25.079Z,4.73
2019-01-31T16:50:14.990Z,2.67
2019-01-31T16:53:02.962Z,4.13
2019-01-31T16:55:50.842Z,3.47
2019-01-31T16:58:38.746Z,3.50
2019-01-31T17:01:26.622Z,3.03
2019-01-31T17:04:14.593Z,4.67
2019-01-31T17:07:02.470Z,2.90
2019-01-31T17:09:50.365Z,3.10
2019-01-31T17:12:31.119Z,4.83
2019-01-31T17:15:18.206Z,3.80
2019-01-31T17:17:54.755Z,3.53
2019-01-31T17:20:35.422Z,11.90
2019-01-31T17:23:15.876Z,12.70
2019-01-31T17:25:56.854Z,4.43
2019-01-31T17:28:37.636Z,5.20
2019-01-31T17:31:18.803Z,4.67
2019-01-31T17:33:59.741Z,7.40
2019-01-31T17:36:40.185Z,4.43
2019-01-31T17:39:20.566Z,5.43
2019-01-31T17:42:04.212Z,3.27
2019-01-31T17:44:43.762Z,2.90
2019-01-31T17:47:24.115Z,3.57
2019-01-31T17:50:04.975Z,4.83
2019-01-31T17:52:45.703Z,4.90
2019-01-31T17:58:34.907Z,5.00
2019-01-31T18:01:15.599Z,4.13
2019-01-31T18:03:56.231Z,3.13
2019-01-31T18:06:36.739Z,4.73
2019-01-31T18:09:17.786Z,3.07
2019-01-31T18:11:58.570Z,3.27
2019-01-31T18:14:39.523Z,5.13
2019-01-31T18:17:20.168Z,3.93
2019-01-31T18:23:05.903Z,4.70
2019-01-31T18:25:46.675Z,3.53
2019-01-31T18:28:27.361Z,3.60
2019-01-31T18:31:08.064Z,4.13
2019-01-31T18:33:48.467Z,3.13
2019-01-31T18:36:28.940Z,5.30
2019-01-31T18:39:09.502Z,3.60
2019-01-31T18:41:50.281Z,2.70
2019-01-31T18:44:30.835Z,2.47
2019-01-31T18:47:11.174Z,3.70
2019-01-31T18:49:51.746Z,2.97
2019-01-31T18:52:32.630Z,4.60
2019-01-31T18:55:13.203Z,3.40
2019-01-31T18:57:54.443Z,2.73
2019-01-31T19:00:35.885Z,4.57
2019-01-31T19:03:16.470Z,4.03
2019-01-31T19:05:57.547Z,3.33
2019-01-31T19:08:37.953Z,4.20
2019-01-31T19:11:19.033Z,3.27
2019-01-31T19:14:18.815Z,2.60
2019-01-31T19:16:59.139Z,4.17
2019-01-31T19:19:40.085Z,3.40
2019-01-31T19:22:20.746Z,5.47
2019-01-31T19:25:01.220Z,2.87
2019-01-31T19:27:41.950Z,4.93
2019-01-31T19:30:22.651Z,3.27
2019-01-31T19:33:03.087Z,3.57
2019-01-31T19:35:43.754Z,2.43
2019-01-31T19:38:24.526Z,4.80
2019-01-31T19:41:05.713Z,3.17
2019-01-31T19:43:34.230Z,4.17
2019-01-31T19:46:22.131Z,3.83
2019-01-31T19:49:10.011Z,3.63
2019-01-31T19:51:57.914Z,3.53
2019-01-31T19:54:45.798Z,4.70
2019-01-31T19:57:33.834Z,3.07
2019-01-31T20:00:42.434Z,4.23
2019-01-31T20:03:30.333Z,3.57
2019-01-31T20:06:18.307Z,3.20
2019-01-31T20:09:26.929Z,5.40
2019-01-31T20:12:08.236Z,2.97
2019-01-31T20:14:49.249Z,3.10
2019-01-31T20:17:29.863Z,6.23
2019-01-31T20:20:11.162Z,4.13
2019-01-31T20:22:51.607Z,2.80
2019-01-31T20:25:32.042Z,4.67
2019-01-31T20:28:12.573Z,2.63
2019-01-31T20:30:53.188Z,3.13
2019-01-31T20:33:33.855Z,3.43
2019-01-31T20:36:14.879Z,3.93
2019-01-31T20:38:55.766Z,3.07
2019-01-31T20:41:36.655Z,3.37
2019-01-31T20:44:17.530Z,2.90
2019-01-31T20:46:57.994Z,3.80
2019-01-31T20:49:38.599Z,4.20
2019-01-31T20:58:29.239Z,4.00
2019-01-31T21:01:10.121Z,3.63
2019-01-31T21:03:50.775Z,6.07
2019-01-31T21:06:41.223Z,3.50
2019-01-31T21:09:13.786Z,3.77
2019-01-31T21:11:54.661Z,4.17
2019-01-31T21:14:35.547Z,4.07
2019-01-31T21:17:16.255Z,3.43
2019-01-31T21:19:57.270Z,4.90
2019-01-31T21:22:37.971Z,3.90
2019-01-31T21:25:18.896Z,6.37
2019-01-31T21:27:59.493Z,4.00
2019-01-31T21:30:39.930Z,3.60
2019-01-31T21:33:20.542Z,4.73
2019-01-31T21:36:01.445Z,6.23
2019-01-31T21:38:42.440Z,4.80
2019-01-31T21:41:23.609Z,5.60
2019-01-31T21:44:04.383Z,3.10
2019-01-31T21:46:44.860Z,3.63
2019-01-31T21:49:25.651Z,5.37
2019-01-31T21:55:25.480Z,4.83
2019-01-31T21:58:05.846Z,3.63
2019-01-31T22:00:46.300Z,3.90
2019-01-31T22:03:26.962Z,6.37
2019-01-31T22:06:07.927Z,3.63
2019-01-31T22:08:48.270Z,3.40
2019-01-31T22:11:29.048Z,4.30
2019-01-31T22:14:09.781Z,3.73
2019-01-31T22:16:50.158Z,5.17
2019-01-31T22:22:39.021Z,6.83
2019-01-31T22:25:19.618Z,5.63
2019-01-31T22:28:00.384Z,4.97
2019-01-31T22:30:41.153Z,4.47
2019-01-31T22:33:22.003Z,4.83
2019-01-31T22:36:02.806Z,3.63
2019-01-31T22:38:45.570Z,3.47
2019-01-31T22:41:25.557Z,4.17
2019-01-31T22:44:06.378Z,3.87
2019-01-31T22:46:46.733Z,4.93
2019-01-31T22:49:27.420Z,5.10
2019-01-31T22:52:08.410Z,4.67
2019-01-31T22:54:49.102Z,3.87
2019-01-31T22:57:29.855Z,5.27
2019-01-31T23:00:12.215Z,5.40
2019-01-31T23:02:53.103Z,4.97
2019-01-31T23:05:33.750Z,3.47
2019-01-31T23:08:14.973Z,3.17
2019-01-31T23:10:55.841Z,3.53
2019-01-31T23:13:36.353Z,4.13
2019-01-31T23:16:17.295Z,3.80
2019-01-31T23:18:58.105Z,3.70
2019-01-31T23:21:38.858Z,3.03
2019-01-31T23:24:19.680Z,3.40
2019-01-31T23:27:00.651Z,5.30
2019-01-31T23:29:41.494Z,3.30
2019-01-31T23:32:22.191Z,4.90
2019-01-31T23:35:03.371Z,3.23
2019-01-31T23:37:43.789Z,3.87
2019-01-31T23:40:24.459Z,3.40
2019-01-31T23:43:05.081Z,4.30
2019-01-31T23:45:45.760Z,3.27
2019-01-31T23:48:14.238Z,4.37
2019-01-31T23:51:02.135Z,3.07
2019-01-31T23:53:50.028Z,3.97
2019-01-31T23:56:37.926Z,4.17
2019-01-31T23:59:25.808Z,2.90
